TimePST,TemperatureF,Dew PointF,Humidity,Sea Level PressureIn,VisibilityMPH,Wind Direction,Wind SpeedMPH,Gust SpeedMPH,PrecipitationIn,Events,Conditions,WindDirDegrees,DateUTC
12:55 AM,46.9,44.1,90,30.10,4.0,ENE,5.8,-,N/A,,Partly Cloudy,70,2012-12-10 08:55:00
1:55 AM,48.0,44.1,86,30.09,4.0,North,3.5,-,N/A,,Partly Cloudy,360,2012-12-10 09:55:00
2:55 AM,46.0,42.1,86,30.09,4.0,NE,3.5,-,N/A,,Partly Cloudy,50,2012-12-10 10:55:00
3:55 AM,48.9,46.0,90,30.08,3.0,Calm,Calm,-,N/A,,Partly Cloudy,0,2012-12-10 11:55:00
4:55 AM,43.0,39.0,86,30.09,8.0,Calm,Calm,-,N/A,,Partly Cloudy,0,2012-12-10 12:55:00
5:55 AM,45.0,39.9,82,30.09,10.0,NE,5.8,-,N/A,,Partly Cloudy,50,2012-12-10 13:55:00
6:55 AM,46.0,39.9,79,30.10,10.0,East,5.8,-,N/A,,Partly Cloudy,100,2012-12-10 14:55:00
7:55 AM,57.0,39.9,53,30.12,10.0,Calm,Calm,-,N/A,,Partly Cloudy,0,2012-12-10 15:55:00
8:55 AM,66.0,37.9,36,30.12,10.0,Calm,Calm,-,N/A,,Partly Cloudy,0,2012-12-10 16:55:00
9:55 AM,70.0,33.1,26,30.12,10.0,SSW,4.6,-,N/A,,Clear,200,2012-12-10 17:55:00
10:55 AM,71.1,30.0,22,30.11,10.0,Variable,4.6,-,N/A,,Clear,0,2012-12-10 18:55:00
11:55 AM,72.0,35.1,26,30.08,10.0,West,8.1,-,N/A,,Clear,280,2012-12-10 19:55:00
12:55 PM,72.0,33.1,24,30.06,10.0,West,9.2,-,N/A,,Clear,270,2012-12-10 20:55:00
1:55 PM,71.1,32.0,24,30.05,10.0,NW,8.1,-,N/A,,Clear,310,2012-12-10 21:55:00
2:55 PM,70.0,37.0,30,30.04,10.0,NW,6.9,-,N/A,,Clear,310,2012-12-10 22:55:00
3:55 PM,68.0,46.0,45,30.04,8.0,NW,5.8,-,N/A,,Clear,310,2012-12-10 23:55:00
4:55 PM,60.1,43.0,53,30.04,7.0,WNW,6.9,-,N/A,,Clear,290,2012-12-11 00:55:00
5:55 PM,59.0,52.0,78,30.05,7.0,North,4.6,-,N/A,,Clear,350,2012-12-11 01:55:00
6:55 PM,55.0,48.9,80,30.05,7.0,NE,3.5,-,N/A,,Clear,50,2012-12-11 02:55:00
7:55 PM,50.0,42.1,74,30.05,7.0,Calm,Calm,-,N/A,,Clear,0,2012-12-11 03:55:00
8:55 PM,48.9,39.9,71,30.05,10.0,ENE,3.5,-,N/A,,Clear,70,2012-12-11 04:55:00
9:55 PM,48.9,37.9,66,30.06,10.0,ENE,4.6,-,N/A,,Clear,70,2012-12-11 05:55:00
10:55 PM,48.0,37.9,68,30.06,10.0,East,5.8,-,N/A,,Clear,80,2012-12-11 06:55:00
11:55 PM,46.9,37.0,68,30.05,10.0,East,4.6,-,N/A,,Clear,80,2012-12-11 07:55:00